sensor_id;sensor_type;location;lat;lon;timestamp;temperature;humidity
10282;DHT22;5186;59.472;18.048;2022-11-22T00:02:04;2.60;99.90
10282;DHT22;5186;59.472;18.048;2022-11-22T00:04:29;2.60;99.90
10282;DHT22;5186;59.472;18.048;2022-11-22T00:06:55;2.60;99.90
10282;DHT22;5186;59.472;18.048;2022-11-22T00:09:20;2.60;99.90
10282;DHT22;5186;59.472;18.048;2022-11-22T00:11:46;2.60;99.90
10282;DHT22;5186;59.472;18.048;2022-11-22T00:14:12;2.60;99.90
10282;DHT22;5186;59.472;18.048;2022-11-22T00:16:37;2.50;99.90
10282;DHT22;5186;59.472;18.048;2022-11-22T00:19:03;2.50;99.90
10282;DHT22;5186;59.472;18.048;2022-11-22T00:21:28;2.50;99.90
10282;DHT22;5186;59.472;18.048;2022-11-22T00:23:57;2.60;99.90
10282;DHT22;5186;59.472;18.048;2022-11-22T00:26:23;2.50;99.90
10282;DHT22;5186;59.472;18.048;2022-11-22T00:28:49;2.60;99.90
10282;DHT22;5186;59.472;18.048;2022-11-22T00:31:15;2.60;99.90
10282;DHT22;5186;59.472;18.048;2022-11-22T00:33:41;2.50;99.90
10282;DHT22;5186;59.472;18.048;2022-11-22T00:36:06;2.50;99.90
10282;DHT22;5186;59.472;18.048;2022-11-22T00:38:32;2.50;99.90
10282;DHT22;5186;59.472;18.048;2022-11-22T00:40:57;2.50;99.90
10282;DHT22;5186;59.472;18.048;2022-11-22T00:43:23;2.50;99.90
10282;DHT22;5186;59.472;18.048;2022-11-22T00:45:49;2.50;99.90
10282;DHT22;5186;59.472;18.048;2022-11-22T00:48:14;2.50;99.90
10282;DHT22;5186;59.472;18.048;2022-11-22T00:50:40;2.50;99.90
10282;DHT22;5186;59.472;18.048;2022-11-22T00:53:05;2.50;99.90
10282;DHT22;5186;59.472;18.048;2022-11-22T00:55:31;2.50;99.90
10282;DHT22;5186;59.472;18.048;2022-11-22T00:57:57;2.50;99.90
10282;DHT22;5186;59.472;18.048;2022-11-22T01:00:22;2.40;99.90
10282;DHT22;5186;59.472;18.048;2022-11-22T01:02:48;2.50;99.90
10282;DHT22;5186;59.472;18.048;2022-11-22T01:05:13;2.50;99.90
10282;DHT22;5186;59.472;18.048;2022-11-22T01:07:39;2.50;99.90
10282;DHT22;5186;59.472;18.048;2022-11-22T01:10:05;2.40;99.90
10282;DHT22;5186;59.472;18.048;2022-11-22T01:12:30;2.40;99.90
10282;DHT22;5186;59.472;18.048;2022-11-22T01:14:56;2.40;99.90
10282;DHT22;5186;59.472;18.048;2022-11-22T01:17:22;2.40;99.90
10282;DHT22;5186;59.472;18.048;2022-11-22T01:19:47;2.40;99.90
10282;DHT22;5186;59.472;18.048;2022-11-22T01:22:13;2.40;99.90
10282;DHT22;5186;59.472;18.048;2022-11-22T01:24:38;2.40;99.90
10282;DHT22;5186;59.472;18.048;2022-11-22T01:27:04;2.40;99.90
10282;DHT22;5186;59.472;18.048;2022-11-22T01:29:30;2.40;99.90
10282;DHT22;5186;59.472;18.048;2022-11-22T01:31:55;2.40;99.90
10282;DHT22;5186;59.472;18.048;2022-11-22T01:34:21;2.40;99.90
10282;DHT22;5186;59.472;18.048;2022-11-22T01:36:47;2.40;99.90
10282;DHT22;5186;59.472;18.048;2022-11-22T01:39:12;2.40;99.90
10282;DHT22;5186;59.472;18.048;2022-11-22T01:41:39;2.40;99.90
10282;DHT22;5186;59.472;18.048;2022-11-22T01:44:28;2.40;99.90
10282;DHT22;5186;59.472;18.048;2022-11-22T01:46:56;2.40;99.90
10282;DHT22;5186;59.472;18.048;2022-11-22T01:49:31;2.40;99.90
10282;DHT22;5186;59.472;18.048;2022-11-22T01:52:18;2.40;99.90
10282;DHT22;5186;59.472;18.048;2022-11-22T01:54:51;2.50;99.90
10282;DHT22;5186;59.472;18.048;2022-11-22T01:57:23;2.50;99.90
10282;DHT22;5186;59.472;18.048;2022-11-22T01:59:55;2.50;99.90
10282;DHT22;5186;59.472;18.048;2022-11-22T02:02:21;2.50;99.90
10282;DHT22;5186;59.472;18.048;2022-11-22T02:04:48;2.50;99.90
10282;DHT22;5186;59.472;18.048;2022-11-22T02:07:24;2.50;99.90
10282;DHT22;5186;59.472;18.048;2022-11-22T02:09:52;2.60;99.90
10282;DHT22;5186;59.472;18.048;2022-11-22T02:12:21;2.50;99.90
10282;DHT22;5186;59.472;18.048;2022-11-22T02:14:48;2.60;99.90
10282;DHT22;5186;59.472;18.048;2022-11-22T02:17:14;2.60;99.90
10282;DHT22;5186;59.472;18.048;2022-11-22T02:19:45;2.60;99.90
10282;DHT22;5186;59.472;18.048;2022-11-22T02:24:53;2.60;99.90
10282;DHT22;5186;59.472;18.048;2022-11-22T02:27:20;2.60;99.90
10282;DHT22;5186;59.472;18.048;2022-11-22T02:29:45;2.60;99.90
10282;DHT22;5186;59.472;18.048;2022-11-22T02:32:11;2.60;99.90
10282;DHT22;5186;59.472;18.048;2022-11-22T02:34:47;2.60;99.90
10282;DHT22;5186;59.472;18.048;2022-11-22T02:37:16;2.70;99.90
10282;DHT22;5186;59.472;18.048;2022-11-22T02:39:44;2.60;99.90
10282;DHT22;5186;59.472;18.048;2022-11-22T02:42:12;2.70;99.90
10282;DHT22;5186;59.472;18.048;2022-11-22T02:44:39;2.70;99.90
10282;DHT22;5186;59.472;18.048;2022-11-22T02:47:05;2.70;99.90
10282;DHT22;5186;59.472;18.048;2022-11-22T02:49:31;2.70;99.90
10282;DHT22;5186;59.472;18.048;2022-11-22T02:51:56;2.70;99.90
10282;DHT22;5186;59.472;18.048;2022-11-22T02:54:22;2.70;99.90
10282;DHT22;5186;59.472;18.048;2022-11-22T02:56:48;2.70;99.90
10282;DHT22;5186;59.472;18.048;2022-11-22T02:59:14;2.70;99.90
10282;DHT22;5186;59.472;18.048;2022-11-22T03:01:39;2.70;99.90
10282;DHT22;5186;59.472;18.048;2022-11-22T03:04:05;2.70;99.90
10282;DHT22;5186;59.472;18.048;2022-11-22T03:06:31;2.80;99.90
10282;DHT22;5186;59.472;18.048;2022-11-22T03:08:57;2.70;99.90
10282;DHT22;5186;59.472;18.048;2022-11-22T03:11:23;2.70;99.90
10282;DHT22;5186;59.472;18.048;2022-11-22T03:13:49;2.80;99.90
10282;DHT22;5186;59.472;18.048;2022-11-22T03:16:14;2.70;99.90
10282;DHT22;5186;59.472;18.048;2022-11-22T03:18:40;2.70;99.90
10282;DHT22;5186;59.472;18.048;2022-11-22T03:21:07;2.70;99.90
10282;DHT22;5186;59.472;18.048;2022-11-22T03:23:33;2.70;99.90
10282;DHT22;5186;59.472;18.048;2022-11-22T03:26:05;2.70;99.90
10282;DHT22;5186;59.472;18.048;2022-11-22T03:28:30;2.70;99.90
10282;DHT22;5186;59.472;18.048;2022-11-22T03:30:56;2.70;99.90
10282;DHT22;5186;59.472;18.048;2022-11-22T03:33:22;2.60;99.90
10282;DHT22;5186;59.472;18.048;2022-11-22T03:35:47;2.70;99.90
10282;DHT22;5186;59.472;18.048;2022-11-22T03:38:13;2.70;99.90
10282;DHT22;5186;59.472;18.048;2022-11-22T03:40:39;2.70;99.90
10282;DHT22;5186;59.472;18.048;2022-11-22T03:43:04;2.70;99.90
10282;DHT22;5186;59.472;18.048;2022-11-22T03:45:30;2.70;99.90
10282;DHT22;5186;59.472;18.048;2022-11-22T03:47:56;2.70;99.90
10282;DHT22;5186;59.472;18.048;2022-11-22T03:50:22;2.70;99.90
10282;DHT22;5186;59.472;18.048;2022-11-22T03:52:48;2.70;99.90
10282;DHT22;5186;59.472;18.048;2022-11-22T03:55:14;2.70;99.90
10282;DHT22;5186;59.472;18.048;2022-11-22T03:57:39;2.70;99.90
10282;DHT22;5186;59.472;18.048;2022-11-22T04:00:05;2.70;99.90
10282;DHT22;5186;59.472;18.048;2022-11-22T04:02:31;2.70;99.90
10282;DHT22;5186;59.472;18.048;2022-11-22T04:04:57;2.70;99.90
10282;DHT22;5186;59.472;18.048;2022-11-22T04:07:23;2.70;99.90
10282;DHT22;5186;59.472;18.048;2022-11-22T04:09:48;2.60;99.90
10282;DHT22;5186;59.472;18.048;2022-11-22T04:12:14;2.60;99.90
10282;DHT22;5186;59.472;18.048;2022-11-22T04:14:39;2.60;99.90
10282;DHT22;5186;59.472;18.048;2022-11-22T04:17:23;2.60;99.90
10282;DHT22;5186;59.472;18.048;2022-11-22T04:20:16;2.60;99.90
10282;DHT22;5186;59.472;18.048;2022-11-22T04:23:04;2.70;99.90
10282;DHT22;5186;59.472;18.048;2022-11-22T04:25:33;2.70;99.90
10282;DHT22;5186;59.472;18.048;2022-11-22T04:27:59;2.60;99.90
10282;DHT22;5186;59.472;18.048;2022-11-22T04:30:25;2.70;99.90
10282;DHT22;5186;59.472;18.048;2022-11-22T04:33:10;2.70;99.90
10282;DHT22;5186;59.472;18.048;2022-11-22T04:35:36;2.70;99.90
10282;DHT22;5186;59.472;18.048;2022-11-22T04:38:02;2.70;99.90
10282;DHT22;5186;59.472;18.048;2022-11-22T04:40:28;2.70;99.90
10282;DHT22;5186;59.472;18.048;2022-11-22T04:42:53;2.70;99.90
10282;DHT22;5186;59.472;18.048;2022-11-22T04:45:37;2.70;99.90
10282;DHT22;5186;59.472;18.048;2022-11-22T04:48:03;2.80;99.90
10282;DHT22;5186;59.472;18.048;2022-11-22T04:50:30;2.80;99.90
10282;DHT22;5186;59.472;18.048;2022-11-22T04:53:16;2.70;99.90
10282;DHT22;5186;59.472;18.048;2022-11-22T04:55:44;2.70;99.90
10282;DHT22;5186;59.472;18.048;2022-11-22T04:58:10;2.70;99.90
10282;DHT22;5186;59.472;18.048;2022-11-22T05:00:37;2.70;99.90
10282;DHT22;5186;59.472;18.048;2022-11-22T05:03:03;2.70;99.90
10282;DHT22;5186;59.472;18.048;2022-11-22T05:05:30;2.60;99.90
10282;DHT22;5186;59.472;18.048;2022-11-22T05:07:57;2.60;99.90
10282;DHT22;5186;59.472;18.048;2022-11-22T05:10:23;2.60;99.90
10282;DHT22;5186;59.472;18.048;2022-11-22T05:12:49;2.50;99.90
10282;DHT22;5186;59.472;18.048;2022-11-22T05:15:14;2.50;99.90
10282;DHT22;5186;59.472;18.048;2022-11-22T05:17:40;2.40;99.90
10282;DHT22;5186;59.472;18.048;2022-11-22T05:20:06;2.40;99.90
10282;DHT22;5186;59.472;18.048;2022-11-22T05:22:32;2.40;99.90
10282;DHT22;5186;59.472;18.048;2022-11-22T05:25:17;2.40;99.90
10282;DHT22;5186;59.472;18.048;2022-11-22T05:27:42;2.40;99.90
10282;DHT22;5186;59.472;18.048;2022-11-22T05:30:08;2.30;99.90
10282;DHT22;5186;59.472;18.048;2022-11-22T05:32:34;2.40;99.90
10282;DHT22;5186;59.472;18.048;2022-11-22T05:35:00;2.30;99.90
10282;DHT22;5186;59.472;18.048;2022-11-22T05:37:26;2.40;99.90
10282;DHT22;5186;59.472;18.048;2022-11-22T05:39:51;2.30;99.90
10282;DHT22;5186;59.472;18.048;2022-11-22T05:42:17;2.40;99.90
10282;DHT22;5186;59.472;18.048;2022-11-22T05:44:43;2.40;99.90
10282;DHT22;5186;59.472;18.048;2022-11-22T05:47:09;2.40;99.90
10282;DHT22;5186;59.472;18.048;2022-11-22T05:49:35;2.50;99.90
10282;DHT22;5186;59.472;18.048;2022-11-22T05:52:01;2.40;99.90
10282;DHT22;5186;59.472;18.048;2022-11-22T05:54:28;2.40;99.90
10282;DHT22;5186;59.472;18.048;2022-11-22T05:56:53;2.40;99.90
10282;DHT22;5186;59.472;18.048;2022-11-22T05:59:19;2.40;99.90
10282;DHT22;5186;59.472;18.048;2022-11-22T06:01:44;2.40;99.90
10282;DHT22;5186;59.472;18.048;2022-11-22T06:04:10;2.40;99.90
10282;DHT22;5186;59.472;18.048;2022-11-22T06:06:36;2.40;99.90
10282;DHT22;5186;59.472;18.048;2022-11-22T06:09:02;2.40;99.90
10282;DHT22;5186;59.472;18.048;2022-11-22T06:11:28;2.40;99.90
10282;DHT22;5186;59.472;18.048;2022-11-22T06:13:56;2.50;99.90
10282;DHT22;5186;59.472;18.048;2022-11-22T06:16:22;2.50;99.90
10282;DHT22;5186;59.472;18.048;2022-11-22T06:18:47;2.50;99.90
10282;DHT22;5186;59.472;18.048;2022-11-22T06:21:18;2.50;99.90
10282;DHT22;5186;59.472;18.048;2022-11-22T06:23:44;2.50;99.90
10282;DHT22;5186;59.472;18.048;2022-11-22T06:26:12;2.50;99.90
10282;DHT22;5186;59.472;18.048;2022-11-22T06:28:39;2.50;99.90
10282;DHT22;5186;59.472;18.048;2022-11-22T06:31:25;2.50;99.90
10282;DHT22;5186;59.472;18.048;2022-11-22T06:33:53;2.50;99.90
10282;DHT22;5186;59.472;18.048;2022-11-22T06:36:21;2.50;99.90
10282;DHT22;5186;59.472;18.048;2022-11-22T06:38:48;2.40;99.90
10282;DHT22;5186;59.472;18.048;2022-11-22T06:41:34;2.40;99.90
10282;DHT22;5186;59.472;18.048;2022-11-22T06:44:03;2.40;99.90
10282;DHT22;5186;59.472;18.048;2022-11-22T06:46:29;2.50;99.90
10282;DHT22;5186;59.472;18.048;2022-11-22T06:48:55;2.50;99.90
10282;DHT22;5186;59.472;18.048;2022-11-22T06:51:26;2.50;99.90
10282;DHT22;5186;59.472;18.048;2022-11-22T06:53:53;2.50;99.90
10282;DHT22;5186;59.472;18.048;2022-11-22T06:56:30;2.50;99.90
10282;DHT22;5186;59.472;18.048;2022-11-22T06:58:57;2.50;99.90
10282;DHT22;5186;59.472;18.048;2022-11-22T07:01:27;2.50;99.90
10282;DHT22;5186;59.472;18.048;2022-11-22T07:03:54;2.50;99.90
10282;DHT22;5186;59.472;18.048;2022-11-22T07:06:23;2.50;99.90
10282;DHT22;5186;59.472;18.048;2022-11-22T07:08:49;2.50;99.90
10282;DHT22;5186;59.472;18.048;2022-11-22T07:11:20;2.50;99.90
10282;DHT22;5186;59.472;18.048;2022-11-22T07:13:47;2.50;99.90
10282;DHT22;5186;59.472;18.048;2022-11-22T07:16:14;2.50;99.90
10282;DHT22;5186;59.472;18.048;2022-11-22T07:18:41;2.60;99.90
10282;DHT22;5186;59.472;18.048;2022-11-22T07:23:38;2.60;99.90
10282;DHT22;5186;59.472;18.048;2022-11-22T07:26:04;2.60;99.90
10282;DHT22;5186;59.472;18.048;2022-11-22T07:28:29;2.60;99.90
10282;DHT22;5186;59.472;18.048;2022-11-22T07:30:59;2.60;99.90
10282;DHT22;5186;59.472;18.048;2022-11-22T07:33:25;2.50;99.90
10282;DHT22;5186;59.472;18.048;2022-11-22T07:35:51;2.50;99.90
10282;DHT22;5186;59.472;18.048;2022-11-22T07:38:17;2.50;99.90
10282;DHT22;5186;59.472;18.048;2022-11-22T07:40:42;2.50;99.90
10282;DHT22;5186;59.472;18.048;2022-11-22T07:43:08;2.50;99.90
10282;DHT22;5186;59.472;18.048;2022-11-22T07:45:33;2.60;99.90
10282;DHT22;5186;59.472;18.048;2022-11-22T07:48:00;2.60;99.90
10282;DHT22;5186;59.472;18.048;2022-11-22T07:50:26;2.60;99.90
10282;DHT22;5186;59.472;18.048;2022-11-22T07:52:58;2.60;99.90
10282;DHT22;5186;59.472;18.048;2022-11-22T07:55:25;2.60;99.90
10282;DHT22;5186;59.472;18.048;2022-11-22T07:57:51;2.70;99.90
10282;DHT22;5186;59.472;18.048;2022-11-22T08:00:18;2.70;99.90
10282;DHT22;5186;59.472;18.048;2022-11-22T08:02:44;2.70;99.90
10282;DHT22;5186;59.472;18.048;2022-11-22T08:05:09;2.70;99.90
10282;DHT22;5186;59.472;18.048;2022-11-22T08:07:35;2.70;99.90
10282;DHT22;5186;59.472;18.048;2022-11-22T08:10:01;2.80;99.90
10282;DHT22;5186;59.472;18.048;2022-11-22T08:12:26;2.80;99.90
10282;DHT22;5186;59.472;18.048;2022-11-22T08:14:52;2.80;99.90
10282;DHT22;5186;59.472;18.048;2022-11-22T08:17:17;2.90;99.90
10282;DHT22;5186;59.472;18.048;2022-11-22T08:19:43;2.90;99.90
10282;DHT22;5186;59.472;18.048;2022-11-22T08:22:08;2.90;99.90
10282;DHT22;5186;59.472;18.048;2022-11-22T08:24:34;2.90;99.90
10282;DHT22;5186;59.472;18.048;2022-11-22T08:27:00;3.00;99.90
10282;DHT22;5186;59.472;18.048;2022-11-22T08:29:25;3.00;99.90
10282;DHT22;5186;59.472;18.048;2022-11-22T08:31:53;3.00;99.90
10282;DHT22;5186;59.472;18.048;2022-11-22T08:34:18;3.10;99.90
10282;DHT22;5186;59.472;18.048;2022-11-22T08:36:44;3.10;99.90
10282;DHT22;5186;59.472;18.048;2022-11-22T08:39:10;3.10;99.90
10282;DHT22;5186;59.472;18.048;2022-11-22T08:41:36;3.10;99.90
10282;DHT22;5186;59.472;18.048;2022-11-22T08:44:01;3.20;99.90
10282;DHT22;5186;59.472;18.048;2022-11-22T08:46:27;3.10;99.90
10282;DHT22;5186;59.472;18.048;2022-11-22T08:48:52;3.10;99.90
10282;DHT22;5186;59.472;18.048;2022-11-22T08:51:18;3.20;99.90
10282;DHT22;5186;59.472;18.048;2022-11-22T08:53:44;3.30;99.90
10282;DHT22;5186;59.472;18.048;2022-11-22T08:56:11;3.30;99.90
10282;DHT22;5186;59.472;18.048;2022-11-22T08:58:37;3.30;99.90
10282;DHT22;5186;59.472;18.048;2022-11-22T09:03:34;3.30;99.90
10282;DHT22;5186;59.472;18.048;2022-11-22T09:06:04;3.30;99.90
10282;DHT22;5186;59.472;18.048;2022-11-22T09:08:31;3.30;99.90
10282;DHT22;5186;59.472;18.048;2022-11-22T09:11:08;3.40;99.90
10282;DHT22;5186;59.472;18.048;2022-11-22T09:13:34;3.40;99.90
10282;DHT22;5186;59.472;18.048;2022-11-22T09:16:03;3.40;99.90
10282;DHT22;5186;59.472;18.048;2022-11-22T09:18:30;3.40;99.90
10282;DHT22;5186;59.472;18.048;2022-11-22T09:21:03;3.40;99.90
10282;DHT22;5186;59.472;18.048;2022-11-22T09:23:29;3.40;99.90
10282;DHT22;5186;59.472;18.048;2022-11-22T09:26:00;3.40;99.90
10282;DHT22;5186;59.472;18.048;2022-11-22T09:28:27;3.50;99.90
10282;DHT22;5186;59.472;18.048;2022-11-22T09:31:06;3.50;99.90
10282;DHT22;5186;59.472;18.048;2022-11-22T09:33:33;3.50;99.90
10282;DHT22;5186;59.472;18.048;2022-11-22T09:36:01;3.60;99.90
10282;DHT22;5186;59.472;18.048;2022-11-22T09:38:28;3.50;99.90
10282;DHT22;5186;59.472;18.048;2022-11-22T09:40:54;3.50;99.90
10282;DHT22;5186;59.472;18.048;2022-11-22T09:49:04;3.60;99.90
10282;DHT22;5186;59.472;18.048;2022-11-22T09:51:45;3.60;99.90
10282;DHT22;5186;59.472;18.048;2022-11-22T09:54:16;3.60;99.90
10282;DHT22;5186;59.472;18.048;2022-11-22T09:56:43;3.60;99.90
10282;DHT22;5186;59.472;18.048;2022-11-22T09:59:14;3.60;99.90
10282;DHT22;5186;59.472;18.048;2022-11-22T10:01:44;3.70;99.90
10282;DHT22;5186;59.472;18.048;2022-11-22T10:04:13;3.70;99.90
10282;DHT22;5186;59.472;18.048;2022-11-22T10:06:42;3.70;99.90
10282;DHT22;5186;59.472;18.048;2022-11-22T10:12:30;3.70;99.90
10282;DHT22;5186;59.472;18.048;2022-11-22T10:20:39;3.70;99.90
10282;DHT22;5186;59.472;18.048;2022-11-22T10:23:17;3.70;99.90
10282;DHT22;5186;59.472;18.048;2022-11-22T10:25:46;3.70;99.90
10282;DHT22;5186;59.472;18.048;2022-11-22T10:28:16;3.80;99.90
10282;DHT22;5186;59.472;18.048;2022-11-22T10:50:07;3.90;99.90
10282;DHT22;5186;59.472;18.048;2022-11-22T10:55:53;3.90;99.90
10282;DHT22;5186;59.472;18.048;2022-11-22T10:58:37;3.90;99.90
10282;DHT22;5186;59.472;18.048;2022-11-22T11:04:09;3.90;99.90
10282;DHT22;5186;59.472;18.048;2022-11-22T11:06:39;3.90;99.90
10282;DHT22;5186;59.472;18.048;2022-11-22T11:09:56;3.90;99.90
10282;DHT22;5186;59.472;18.048;2022-11-22T11:12:08;3.90;99.90
10282;DHT22;5186;59.472;18.048;2022-11-22T11:14:38;3.90;99.90
10282;DHT22;5186;59.472;18.048;2022-11-22T11:17:05;3.90;99.90
10282;DHT22;5186;59.472;18.048;2022-11-22T11:19:36;3.90;99.90
10282;DHT22;5186;59.472;18.048;2022-11-22T11:24:31;3.90;99.90
10282;DHT22;5186;59.472;18.048;2022-11-22T11:26:59;3.90;99.90
10282;DHT22;5186;59.472;18.048;2022-11-22T11:29:31;4.00;99.90
10282;DHT22;5186;59.472;18.048;2022-11-22T11:32:09;4.00;99.90
10282;DHT22;5186;59.472;18.048;2022-11-22T11:34:38;3.90;99.90
10282;DHT22;5186;59.472;18.048;2022-11-22T11:37:05;3.90;99.90
10282;DHT22;5186;59.472;18.048;2022-11-22T11:39:36;4.00;99.90
10282;DHT22;5186;59.472;18.048;2022-11-22T11:42:22;3.90;99.90
10282;DHT22;5186;59.472;18.048;2022-11-22T11:44:48;4.00;99.90
10282;DHT22;5186;59.472;18.048;2022-11-22T11:47:32;4.00;99.90
10282;DHT22;5186;59.472;18.048;2022-11-22T11:49:58;4.00;99.90
10282;DHT22;5186;59.472;18.048;2022-11-22T11:52:24;4.00;99.90
10282;DHT22;5186;59.472;18.048;2022-11-22T11:54:59;4.00;99.90
10282;DHT22;5186;59.472;18.048;2022-11-22T11:57:29;4.00;99.90
10282;DHT22;5186;59.472;18.048;2022-11-22T11:59:57;4.00;99.90
10282;DHT22;5186;59.472;18.048;2022-11-22T12:02:40;4.00;99.90
10282;DHT22;5186;59.472;18.048;2022-11-22T12:07:49;4.10;99.90
10282;DHT22;5186;59.472;18.048;2022-11-22T12:10:48;4.10;99.90
10282;DHT22;5186;59.472;18.048;2022-11-22T12:13:23;4.10;99.90
10282;DHT22;5186;59.472;18.048;2022-11-22T12:24:06;4.10;99.90
10282;DHT22;5186;59.472;18.048;2022-11-22T12:26:36;4.10;99.90
10282;DHT22;5186;59.472;18.048;2022-11-22T12:29:02;4.10;99.90
10282;DHT22;5186;59.472;18.048;2022-11-22T12:31:50;4.00;99.90
10282;DHT22;5186;59.472;18.048;2022-11-22T12:34:24;4.00;99.90
10282;DHT22;5186;59.472;18.048;2022-11-22T12:37:04;4.00;99.90
10282;DHT22;5186;59.472;18.048;2022-11-22T12:39:32;4.00;99.90
10282;DHT22;5186;59.472;18.048;2022-11-22T12:42:16;4.00;99.90
10282;DHT22;5186;59.472;18.048;2022-11-22T12:44:51;4.00;99.90
10282;DHT22;5186;59.472;18.048;2022-11-22T12:47:23;4.00;99.90
10282;DHT22;5186;59.472;18.048;2022-11-22T12:50:14;4.00;99.90
10282;DHT22;5186;59.472;18.048;2022-11-22T12:52:46;4.00;99.90
10282;DHT22;5186;59.472;18.048;2022-11-22T12:55:17;4.00;99.90
10282;DHT22;5186;59.472;18.048;2022-11-22T12:57:55;4.00;99.90
10282;DHT22;5186;59.472;18.048;2022-11-22T13:00:26;4.00;99.90
10282;DHT22;5186;59.472;18.048;2022-11-22T13:03:18;4.00;99.90
10282;DHT22;5186;59.472;18.048;2022-11-22T13:05:53;4.00;99.90
10282;DHT22;5186;59.472;18.048;2022-11-22T13:09:13;4.00;99.90
10282;DHT22;5186;59.472;18.048;2022-11-22T13:11:36;3.90;99.90
10282;DHT22;5186;59.472;18.048;2022-11-22T13:14:19;3.90;99.90
10282;DHT22;5186;59.472;18.048;2022-11-22T13:16:45;3.90;99.90
10282;DHT22;5186;59.472;18.048;2022-11-22T13:19:14;3.90;99.90
10282;DHT22;5186;59.472;18.048;2022-11-22T13:27:34;3.80;99.90
10282;DHT22;5186;59.472;18.048;2022-11-22T13:30:01;3.80;99.90
10282;DHT22;5186;59.472;18.048;2022-11-22T13:32:33;3.80;99.90
10282;DHT22;5186;59.472;18.048;2022-11-22T13:37:26;3.70;99.90
10282;DHT22;5186;59.472;18.048;2022-11-22T13:39:52;3.70;99.90
10282;DHT22;5186;59.472;18.048;2022-11-22T13:42:21;3.70;99.90
10282;DHT22;5186;59.472;18.048;2022-11-22T13:47:40;3.60;99.90
10282;DHT22;5186;59.472;18.048;2022-11-22T13:55:44;3.50;99.90
10282;DHT22;5186;59.472;18.048;2022-11-22T14:01:32;3.50;99.90
10282;DHT22;5186;59.472;18.048;2022-11-22T14:07:33;3.40;99.90
10282;DHT22;5186;59.472;18.048;2022-11-22T14:12:22;3.40;99.90
10282;DHT22;5186;59.472;18.048;2022-11-22T14:20:36;3.30;99.90
10282;DHT22;5186;59.472;18.048;2022-11-22T14:23:02;3.30;99.90
10282;DHT22;5186;59.472;18.048;2022-11-22T14:25:54;3.30;99.90
10282;DHT22;5186;59.472;18.048;2022-11-22T14:31:27;3.20;99.90
10282;DHT22;5186;59.472;18.048;2022-11-22T14:36:41;3.10;99.90
10282;DHT22;5186;59.472;18.048;2022-11-22T14:52:54;3.10;99.90
10282;DHT22;5186;59.472;18.048;2022-11-22T14:55:25;3.00;99.90
10282;DHT22;5186;59.472;18.048;2022-11-22T14:57:59;3.00;99.90
10282;DHT22;5186;59.472;18.048;2022-11-22T15:00:33;3.00;99.90
10282;DHT22;5186;59.472;18.048;2022-11-22T15:03:24;3.00;99.90
10282;DHT22;5186;59.472;18.048;2022-11-22T15:15:26;3.00;99.90
10282;DHT22;5186;59.472;18.048;2022-11-22T15:17:56;3.00;99.90
10282;DHT22;5186;59.472;18.048;2022-11-22T15:20:37;3.00;99.90
10282;DHT22;5186;59.472;18.048;2022-11-22T15:23:16;3.00;99.90
10282;DHT22;5186;59.472;18.048;2022-11-22T15:25:43;3.00;99.90
10282;DHT22;5186;59.472;18.048;2022-11-22T15:28:18;3.10;99.90
10282;DHT22;5186;59.472;18.048;2022-11-22T15:30:45;3.00;99.90
10282;DHT22;5186;59.472;18.048;2022-11-22T15:33:32;3.10;99.90
10282;DHT22;5186;59.472;18.048;2022-11-22T15:38:29;3.10;99.90
10282;DHT22;5186;59.472;18.048;2022-11-22T15:40:55;3.10;99.90
10282;DHT22;5186;59.472;18.048;2022-11-22T15:43:23;3.10;99.90
10282;DHT22;5186;59.472;18.048;2022-11-22T15:45:49;3.10;99.90
10282;DHT22;5186;59.472;18.048;2022-11-22T15:48:30;3.10;99.90
10282;DHT22;5186;59.472;18.048;2022-11-22T15:51:20;3.20;99.90
10282;DHT22;5186;59.472;18.048;2022-11-22T15:56:51;3.10;99.90
10282;DHT22;5186;59.472;18.048;2022-11-22T15:59:37;3.10;99.90
10282;DHT22;5186;59.472;18.048;2022-11-22T16:02:21;3.00;99.90
10282;DHT22;5186;59.472;18.048;2022-11-22T16:04:53;3.10;99.90
10282;DHT22;5186;59.472;18.048;2022-11-22T16:07:38;3.10;99.90
10282;DHT22;5186;59.472;18.048;2022-11-22T16:12:44;3.10;99.90
10282;DHT22;5186;59.472;18.048;2022-11-22T16:18:13;3.10;99.90
10282;DHT22;5186;59.472;18.048;2022-11-22T16:21:19;3.10;99.90
10282;DHT22;5186;59.472;18.048;2022-11-22T16:23:44;3.10;99.90
10282;DHT22;5186;59.472;18.048;2022-11-22T16:26:26;3.20;99.90
10282;DHT22;5186;59.472;18.048;2022-11-22T16:31:40;3.20;99.90
10282;DHT22;5186;59.472;18.048;2022-11-22T16:34:11;3.20;99.90
10282;DHT22;5186;59.472;18.048;2022-11-22T16:36:40;3.20;99.90
10282;DHT22;5186;59.472;18.048;2022-11-22T16:39:05;3.20;99.90
10282;DHT22;5186;59.472;18.048;2022-11-22T16:41:33;3.20;99.90
10282;DHT22;5186;59.472;18.048;2022-11-22T16:44:00;3.20;99.90
10282;DHT22;5186;59.472;18.048;2022-11-22T16:46:27;3.20;99.90
10282;DHT22;5186;59.472;18.048;2022-11-22T16:48:54;3.20;99.90
10282;DHT22;5186;59.472;18.048;2022-11-22T16:51:25;3.20;99.90
10282;DHT22;5186;59.472;18.048;2022-11-22T16:53:59;3.20;99.90
10282;DHT22;5186;59.472;18.048;2022-11-22T16:56:32;3.20;99.90
10282;DHT22;5186;59.472;18.048;2022-11-22T16:58:58;3.20;99.90
10282;DHT22;5186;59.472;18.048;2022-11-22T17:01:29;3.20;99.90
10282;DHT22;5186;59.472;18.048;2022-11-22T17:03:57;3.20;99.90
10282;DHT22;5186;59.472;18.048;2022-11-22T17:06:26;3.20;99.90
10282;DHT22;5186;59.472;18.048;2022-11-22T17:08:54;3.20;99.90
10282;DHT22;5186;59.472;18.048;2022-11-22T17:11:22;3.20;99.90
10282;DHT22;5186;59.472;18.048;2022-11-22T17:13:48;3.20;99.90
10282;DHT22;5186;59.472;18.048;2022-11-22T17:16:14;3.20;99.90
10282;DHT22;5186;59.472;18.048;2022-11-22T17:18:42;3.20;99.90
10282;DHT22;5186;59.472;18.048;2022-11-22T17:21:21;3.20;99.90
10282;DHT22;5186;59.472;18.048;2022-11-22T17:23:48;3.20;99.90
10282;DHT22;5186;59.472;18.048;2022-11-22T17:26:14;3.20;99.90
10282;DHT22;5186;59.472;18.048;2022-11-22T17:28:39;3.20;99.90
10282;DHT22;5186;59.472;18.048;2022-11-22T17:31:11;3.20;99.90
10282;DHT22;5186;59.472;18.048;2022-11-22T17:33:37;3.10;99.90
10282;DHT22;5186;59.472;18.048;2022-11-22T17:36:03;3.10;99.90
10282;DHT22;5186;59.472;18.048;2022-11-22T17:38:29;3.00;99.90
10282;DHT22;5186;59.472;18.048;2022-11-22T17:40:58;3.10;99.90
10282;DHT22;5186;59.472;18.048;2022-11-22T17:43:24;3.00;99.90
10282;DHT22;5186;59.472;18.048;2022-11-22T17:45:50;3.10;99.90
10282;DHT22;5186;59.472;18.048;2022-11-22T17:48:15;3.10;99.90
10282;DHT22;5186;59.472;18.048;2022-11-22T17:50:42;3.10;99.90
10282;DHT22;5186;59.472;18.048;2022-11-22T17:53:08;3.10;99.90
10282;DHT22;5186;59.472;18.048;2022-11-22T17:55:34;3.10;99.90
10282;DHT22;5186;59.472;18.048;2022-11-22T17:57:59;3.20;99.90
10282;DHT22;5186;59.472;18.048;2022-11-22T18:00:25;3.20;99.90
10282;DHT22;5186;59.472;18.048;2022-11-22T18:02:50;3.20;99.90
10282;DHT22;5186;59.472;18.048;2022-11-22T18:05:16;3.20;99.90
10282;DHT22;5186;59.472;18.048;2022-11-22T18:07:41;3.10;99.90
10282;DHT22;5186;59.472;18.048;2022-11-22T18:10:08;3.10;99.90
10282;DHT22;5186;59.472;18.048;2022-11-22T18:12:35;3.20;99.90
10282;DHT22;5186;59.472;18.048;2022-11-22T18:15:02;3.20;99.90